Time,TemperatureF,DewpointF,PressureIn,WindDirection,WindDirectionDegrees,WindSpeedMPH,WindSpeedGustMPH,Humidity,HourlyPrecipIn,Conditions,Clouds,dailyrainin,SoftwareType,DateUTC
2013-08-13 00:10:00,63.2,56.0,30.01,NE,47,3.0,-999.0,78,-99.99,,,0.00,weatherlink.com 1.10,2013-08-13 05:10:00,
2013-08-13 00:25:00,62.5,57.0,30.01,NE,55,0.0,-999.0,81,-99.99,,,0.00,weatherlink.com 1.10,2013-08-13 05:25:00,
2013-08-13 00:40:00,61.8,57.0,30.01,ENE,60,0.0,-999.0,84,-99.99,,,0.00,weatherlink.com 1.10,2013-08-13 05:40:00,
2013-08-13 00:55:00,61.1,57.0,30.02,NE,51,0.0,-999.0,86,-99.99,,,0.00,weatherlink.com 1.10,2013-08-13 05:55:00,
2013-08-13 01:10:00,60.9,57.0,30.02,ENE,67,7.0,-999.0,86,-99.99,,,0.00,weatherlink.com 1.10,2013-08-13 06:10:00,
2013-08-13 01:25:00,60.4,55.0,30.03,ENE,74,5.0,-999.0,81,-99.99,,,0.00,weatherlink.com 1.10,2013-08-13 06:25:00,
2013-08-13 01:40:00,59.7,54.0,30.03,NE,44,0.0,-999.0,80,-99.99,,,0.00,weatherlink.com 1.10,2013-08-13 06:40:00,
2013-08-13 01:55:00,58.7,53.0,30.03,ENE,65,4.0,-999.0,81,-99.99,,,0.00,weatherlink.com 1.10,2013-08-13 06:55:00,
2013-08-13 02:10:00,57.8,51.0,30.03,East,90,0.0,-999.0,79,-99.99,,,0.00,weatherlink.com 1.10,2013-08-13 07:10:00,
2013-08-13 02:25:00,57.0,49.0,30.03,ENE,67,0.0,-999.0,74,-99.99,,,0.00,weatherlink.com 1.10,2013-08-13 07:25:00,
2013-08-13 02:40:00,56.5,47.0,30.04,East,86,3.0,-999.0,71,-99.99,,,0.00,weatherlink.com 1.10,2013-08-13 07:40:00,
2013-08-13 02:55:00,56.6,47.0,30.04,ENE,77,1.0,-999.0,71,-99.99,,,0.00,weatherlink.com 1.10,2013-08-13 07:55:00,
2013-08-13 03:10:00,56.2,47.0,30.04,ENE,77,0.0,-999.0,72,-99.99,,,0.00,weatherlink.com 1.10,2013-08-13 08:10:00,
2013-08-13 03:25:00,55.2,47.0,30.05,NE,40,0.0,-999.0,74,-99.99,,,0.00,weatherlink.com 1.10,2013-08-13 08:25:00,
2013-08-13 03:40:00,54.4,48.0,30.05,ENE,63,0.0,-999.0,78,-99.99,,,0.00,weatherlink.com 1.10,2013-08-13 08:40:00,
2013-08-13 03:55:00,53.6,47.0,30.05,ENE,62,0.0,-999.0,79,-99.99,,,0.00,weatherlink.com 1.10,2013-08-13 08:55:00,
2013-08-13 04:10:00,53.0,47.0,30.05,ENE,69,0.0,-999.0,81,-99.99,,,0.00,weatherlink.com 1.10,2013-08-13 09:10:00,
2013-08-13 04:25:00,52.2,47.0,30.06,ENE,69,0.0,-999.0,83,-99.99,,,0.00,weatherlink.com 1.10,2013-08-13 09:25:00,
2013-08-13 04:41:00,51.6,47.0,30.07,ENE,69,0.0,-999.0,84,-99.99,,,0.00,weatherlink.com 1.10,2013-08-13 09:41:00,
2013-08-13 04:56:00,51.2,47.0,30.07,ENE,69,0.0,-999.0,85,-99.99,,,0.00,weatherlink.com 1.10,2013-08-13 09:56:00,
2013-08-13 05:11:00,50.9,47.0,30.07,ENE,69,0.0,-999.0,86,-99.99,,,0.00,weatherlink.com 1.10,2013-08-13 10:11:00,
2013-08-13 05:26:00,50.3,47.0,30.07,ENE,69,0.0,-999.0,87,-99.99,,,0.00,weatherlink.com 1.10,2013-08-13 10:26:00,
2013-08-13 05:41:00,49.9,47.0,30.07,ENE,69,0.0,-999.0,88,-99.99,,,0.00,weatherlink.com 1.10,2013-08-13 10:41:00,
2013-08-13 05:56:00,49.5,46.0,30.07,ENE,69,0.0,-999.0,89,-99.99,,,0.00,weatherlink.com 1.10,2013-08-13 10:56:00,
2013-08-13 06:11:00,49.5,47.0,30.08,ENE,69,0.0,-999.0,90,-99.99,,,0.00,weatherlink.com 1.10,2013-08-13 11:11:00,
2013-08-13 06:26:00,49.5,47.0,30.08,ENE,69,0.0,-999.0,90,-99.99,,,0.00,weatherlink.com 1.10,2013-08-13 11:26:00,
2013-08-13 06:41:00,49.9,47.0,30.09,ENE,69,0.0,-999.0,90,-99.99,,,0.00,weatherlink.com 1.10,2013-08-13 11:41:00,
2013-08-13 06:56:00,51.4,48.0,30.09,ENE,69,0.0,-999.0,87,-99.99,,,0.00,weatherlink.com 1.10,2013-08-13 11:56:00,
2013-08-13 07:11:00,53.1,48.0,30.10,ENE,71,0.0,-999.0,83,-99.99,,,0.00,weatherlink.com 1.10,2013-08-13 12:11:00,
2013-08-13 07:26:00,55.0,48.0,30.10,ENE,71,0.0,-999.0,78,-99.99,,,0.00,weatherlink.com 1.10,2013-08-13 12:26:00,
2013-08-13 07:41:00,56.7,50.0,30.11,NNW,339,0.0,-999.0,77,-99.99,,,0.00,weatherlink.com 1.10,2013-08-13 12:41:00,
2013-08-13 07:56:00,58.5,49.0,30.11,NNW,339,0.0,-999.0,72,-99.99,,,0.00,weatherlink.com 1.10,2013-08-13 12:56:00,
2013-08-13 08:11:00,59.7,50.0,30.11,NNW,342,1.0,-999.0,71,-99.99,,,0.00,weatherlink.com 1.10,2013-08-13 13:11:00,
2013-08-13 08:26:00,61.7,51.0,30.12,NNW,342,0.0,-999.0,67,-99.99,,,0.00,weatherlink.com 1.10,2013-08-13 13:26:00,
2013-08-13 08:41:00,62.4,50.0,30.12,NNW,342,0.0,-999.0,64,-99.99,,,0.00,weatherlink.com 1.10,2013-08-13 13:41:00,
2013-08-13 08:56:00,62.6,50.0,30.13,NNW,342,0.0,-999.0,63,-99.99,,,0.00,weatherlink.com 1.10,2013-08-13 13:56:00,
2013-08-13 09:11:00,64.0,50.0,30.13,East,98,0.0,-999.0,60,-99.99,,,0.00,weatherlink.com 1.10,2013-08-13 14:11:00,
2013-08-13 09:26:00,63.5,50.0,30.13,ENE,69,0.0,-999.0,61,-99.99,,,0.00,weatherlink.com 1.10,2013-08-13 14:26:00,
2013-08-13 09:41:00,64.1,49.0,30.12,NNW,329,5.0,-999.0,59,-99.99,,,0.00,weatherlink.com 1.10,2013-08-13 14:41:00,
2013-08-13 09:56:00,64.2,49.0,30.12,NNW,329,3.0,-999.0,59,-99.99,,,0.00,weatherlink.com 1.10,2013-08-13 14:56:00,
2013-08-13 10:11:00,64.7,49.0,30.13,ENE,73,0.0,-999.0,57,-99.99,,,0.00,weatherlink.com 1.10,2013-08-13 15:11:00,
2013-08-13 10:26:00,65.5,49.0,30.12,NNE,28,4.0,-999.0,56,-99.99,,,0.00,weatherlink.com 1.10,2013-08-13 15:26:00,
2013-08-13 10:41:00,65.6,50.0,30.12,North,349,0.0,-999.0,58,-99.99,,,0.00,weatherlink.com 1.10,2013-08-13 15:41:00,
2013-08-13 10:56:00,67.2,49.0,30.12,NE,52,0.0,-999.0,52,-99.99,,,0.00,weatherlink.com 1.10,2013-08-13 15:56:00,
2013-08-13 11:11:00,67.2,48.0,30.12,NNE,19,0.0,-999.0,51,-99.99,,,0.00,weatherlink.com 1.10,2013-08-13 16:11:00,
2013-08-13 11:26:00,67.0,49.0,30.13,NW,311,3.0,-999.0,53,-99.99,,,0.00,weatherlink.com 1.10,2013-08-13 16:26:00,
2013-08-13 11:41:00,65.4,49.0,30.13,NNW,346,0.0,-999.0,55,-99.99,,,0.00,weatherlink.com 1.10,2013-08-13 16:41:00,
2013-08-13 11:56:00,68.8,50.0,30.13,NE,42,1.0,-999.0,52,-99.99,,,0.00,weatherlink.com 1.10,2013-08-13 16:56:00,
2013-08-13 12:26:00,67.3,49.0,30.13,NNW,346,3.0,-999.0,52,-99.99,,,0.00,weatherlink.com 1.10,2013-08-13 17:26:00,
2013-08-13 12:41:00,67.0,49.0,30.13,NE,39,4.0,-999.0,52,-99.99,,,0.00,weatherlink.com 1.10,2013-08-13 17:41:00,
2013-08-13 12:56:00,68.1,48.0,30.13,NNW,328,6.0,-999.0,49,-99.99,,,0.00,weatherlink.com 1.10,2013-08-13 17:56:00,
2013-08-13 13:11:00,68.2,49.0,30.13,NW,323,1.0,-999.0,51,-99.99,,,0.00,weatherlink.com 1.10,2013-08-13 18:11:00,
2013-08-13 13:26:00,67.6,49.0,30.13,NW,318,4.0,-999.0,52,-99.99,,,0.00,weatherlink.com 1.10,2013-08-13 18:26:00,
2013-08-13 13:41:00,68.4,48.0,30.13,North,350,5.0,-999.0,48,-99.99,,,0.00,weatherlink.com 1.10,2013-08-13 18:41:00,
2013-08-13 13:56:00,69.4,50.0,30.13,North,350,1.0,-999.0,50,-99.99,,,0.00,weatherlink.com 1.10,2013-08-13 18:56:00,
2013-08-13 14:11:00,70.6,49.0,30.12,NNW,328,4.0,-999.0,46,-99.99,,,0.00,weatherlink.com 1.10,2013-08-13 19:11:00,
2013-08-13 14:26:00,70.0,48.0,30.12,NNW,342,0.0,-999.0,46,-99.99,,,0.00,weatherlink.com 1.10,2013-08-13 19:26:00,
2013-08-13 14:41:00,69.6,48.0,30.12,NE,40,1.0,-999.0,47,-99.99,,,0.00,weatherlink.com 1.10,2013-08-13 19:41:00,
2013-08-13 14:56:00,69.9,49.0,30.12,NNE,28,4.0,-999.0,47,-99.99,,,0.00,weatherlink.com 1.10,2013-08-13 19:56:00,
2013-08-13 15:11:00,70.6,49.0,30.11,NNW,340,0.0,-999.0,47,-99.99,,,0.00,weatherlink.com 1.10,2013-08-13 20:11:00,
2013-08-13 15:26:00,69.1,48.0,30.11,NNE,12,2.0,-999.0,47,-99.99,,,0.00,weatherlink.com 1.10,2013-08-13 20:26:00,
2013-08-13 15:41:00,71.0,49.0,30.11,North,355,4.0,-999.0,46,-99.99,,,0.00,weatherlink.com 1.10,2013-08-13 20:41:00,
2013-08-13 15:56:00,71.0,49.0,30.11,North,360,2.0,-999.0,45,-99.99,,,0.00,weatherlink.com 1.10,2013-08-13 20:56:00,
2013-08-13 16:27:00,68.4,49.0,30.11,WNW,282,0.0,-999.0,51,-99.99,,,0.00,weatherlink.com 1.10,2013-08-13 21:27:00,
2013-08-13 16:42:00,68.6,50.0,30.11,NNW,339,0.0,-999.0,52,-99.99,,,0.00,weatherlink.com 1.10,2013-08-13 21:42:00,
2013-08-13 16:57:00,70.0,50.0,30.11,NNE,15,0.0,-999.0,49,-99.99,,,0.00,weatherlink.com 1.10,2013-08-13 21:57:00,
2013-08-13 17:12:00,71.4,48.0,30.11,SW,217,3.0,-999.0,44,-99.99,,,0.00,weatherlink.com 1.10,2013-08-13 22:12:00,
2013-08-13 17:27:00,72.0,50.0,30.11,North,350,0.0,-999.0,46,-99.99,,,0.00,weatherlink.com 1.10,2013-08-13 22:27:00,
2013-08-13 17:42:00,69.5,49.0,30.11,North,355,1.0,-999.0,49,-99.99,,,0.00,weatherlink.com 1.10,2013-08-13 22:42:00,
2013-08-13 17:57:00,68.1,50.0,30.11,NNE,19,0.0,-999.0,53,-99.99,,,0.00,weatherlink.com 1.10,2013-08-13 22:57:00,
2013-08-13 18:12:00,67.7,50.0,30.11,NNW,346,0.0,-999.0,53,-99.99,,,0.00,weatherlink.com 1.10,2013-08-13 23:12:00,
2013-08-13 18:27:00,67.2,51.0,30.11,NNE,19,0.0,-999.0,56,-99.99,,,0.00,weatherlink.com 1.10,2013-08-13 23:27:00,
2013-08-13 18:42:00,66.3,50.0,30.11,WNW,302,1.0,-999.0,57,-99.99,,,0.00,weatherlink.com 1.10,2013-08-13 23:42:00,
2013-08-13 18:57:00,65.6,50.0,30.11,NE,53,1.0,-999.0,57,-99.99,,,0.00,weatherlink.com 1.10,2013-08-13 23:57:00,
2013-08-13 19:12:00,65.2,50.0,30.12,NE,46,0.0,-999.0,58,-99.99,,,0.00,weatherlink.com 1.10,2013-08-14 00:12:00,
2013-08-13 19:27:00,64.9,50.0,30.12,ENE,69,0.0,-999.0,59,-99.99,,,0.00,weatherlink.com 1.10,2013-08-14 00:27:00,
2013-08-13 19:42:00,64.5,50.0,30.12,ENE,69,0.0,-999.0,60,-99.99,,,0.00,weatherlink.com 1.10,2013-08-14 00:42:00,
2013-08-13 19:57:00,63.4,49.0,30.12,NNW,336,4.0,-999.0,60,-99.99,,,0.00,weatherlink.com 1.10,2013-08-14 00:57:00,
2013-08-13 20:12:00,62.4,49.0,30.12,NE,44,0.0,-999.0,62,-99.99,,,0.00,weatherlink.com 1.10,2013-08-14 01:12:00,
2013-08-13 20:27:00,61.4,49.0,30.12,ENE,57,0.0,-999.0,63,-99.99,,,0.00,weatherlink.com 1.10,2013-08-14 01:27:00,
2013-08-13 20:42:00,60.5,49.0,30.13,ENE,57,0.0,-999.0,66,-99.99,,,0.00,weatherlink.com 1.10,2013-08-14 01:42:00,
2013-08-13 20:57:00,59.8,49.0,30.14,ENE,57,0.0,-999.0,67,-99.99,,,0.00,weatherlink.com 1.10,2013-08-14 01:57:00,
2013-08-13 21:12:00,58.8,50.0,30.14,ENE,57,0.0,-999.0,73,-99.99,,,0.00,weatherlink.com 1.10,2013-08-14 02:12:00,
2013-08-13 21:27:00,58.1,51.0,30.14,ENE,57,0.0,-999.0,76,-99.99,,,0.00,weatherlink.com 1.10,2013-08-14 02:27:00,
2013-08-13 21:42:00,57.5,50.0,30.14,ENE,57,0.0,-999.0,77,-99.99,,,0.00,weatherlink.com 1.10,2013-08-14 02:42:00,
2013-08-13 21:57:00,56.7,49.0,30.15,ENE,57,0.0,-999.0,76,-99.99,,,0.00,weatherlink.com 1.10,2013-08-14 02:57:00,
2013-08-13 22:12:00,56.5,49.0,30.15,ENE,57,0.0,-999.0,75,-99.99,,,0.00,weatherlink.com 1.10,2013-08-14 03:12:00,
2013-08-13 22:27:00,56.0,49.0,30.16,ENE,57,0.0,-999.0,76,-99.99,,,0.00,weatherlink.com 1.10,2013-08-14 03:27:00,
2013-08-13 22:42:00,55.2,48.0,30.16,ENE,57,0.0,-999.0,78,-99.99,,,0.00,weatherlink.com 1.10,2013-08-14 03:42:00,
2013-08-13 22:57:00,54.6,48.0,30.17,NNE,14,0.0,-999.0,79,-99.99,,,0.00,weatherlink.com 1.10,2013-08-14 03:57:00,
2013-08-13 23:12:00,54.0,48.0,30.17,NNE,14,0.0,-999.0,80,-99.99,,,0.00,weatherlink.com 1.10,2013-08-14 04:12:00,
2013-08-13 23:27:00,53.1,48.0,30.18,NNE,14,0.0,-999.0,83,-99.99,,,0.00,weatherlink.com 1.10,2013-08-14 04:27:00,
2013-08-13 23:42:00,52.5,48.0,30.18,NNE,14,0.0,-999.0,85,-99.99,,,0.00,weatherlink.com 1.10,2013-08-14 04:42:00,
2013-08-13 23:57:00,52.8,47.0,30.18,NNE,17,0.0,-999.0,81,-99.99,,,0.00,weatherlink.com 1.10,2013-08-14 04:57:00,